Terminal Aerodrome Forecast
Issued by NWS

Home | Current Version | Previous Version | Text Only | Print | Product List | Glossary Off
Versions: 1 2 3 4 5 6 7 8 9 10 11 12 13 14 15 16 17 18 19 20 21 22 23

000
FTUS43 KICT 240108 AAA
TAFHUT
TAF AMD
KHUT 240108Z 2401/2424 13009KT P6SM BKN035
     FM240300 13009KT P6SM OVC025
     FM240500 14009KT 4SM TSRA OVC013CB
     FM240800 15009KT 2SM -DZ OVC004=

USA.gov is the U.S. government's official web portal to all federal, state and local government web resources and services.